Main page
METAR-TAF:

METAR-TAF

Airports :

Vavaʻu International Airport

Vavaʻu, Tonga

latitude: 18-35-07S, longitude: 173-57-42W, elevation: 72 m

Current weather observation

The report was made 3 hours and 40 minutes ago, at 06:00 UTC
Wind 4 kt from the East
Temperature 23°C
Humidity 94%
Pressure 1013 hPa
Visibility 10 km or more
Few clouds at a height of 900 ft
Scattered clouds at a height of 1700 ft
Broken clouds at a height of 4000 ft

METAR: NFTV 110600Z 10004KT 9999 FEW009 SCT017 BKN040 23/22 Q1013

Time: 22:40 (09:40 UTC)

Forecast

The report was made 4 hours and 32 minutes ago, at 05:08 UTC
Forecast valid from 11 at 06 UTC to 12 at 06 UTC
Wind 9 kt from the East/Southeast
Visibility 10 km or more
Few clouds at a height of 1000 ft
Scattered clouds at a height of 1700 ft
Temporary
from 11 at 20 UTC to 12 at 06 UTC
Wind 15 kt from the East/Southeast with gusts up to 25 kt

TAF: NFTV 110508Z 1106/1206 12009KT 9999 FEW010 SCT017 TEMPO 1120/1206 12015G25KT

Weather observations and forecasts of more than 4000 airports (METAR and TAF reports).

The available stations are represented by yellow and red dots on the map.

Hover mouse over dot to see the name of the station.

Then click to see weather observations and forecasts.

To change the map : click on the green buttons with a black cross to zoom in, on the green button with a dash to zoom out, or on the green arrows for adjacent maps.


METAR-TAF: